DIRECCIÓN GENERAL DE AERONÁUTICA CIVIL
DIRECCIÓN METEOROLÓGICA DE CHILE
INFORMACIÓN METAR Y TAF

FIR SANTIAGO

Estación: SCSE
METAR SCSE 290000Z 00000KT 9999 BKN015 14/11 Q1019=

TAF SCSE 282230Z 2900/2924 29004KT 9999 BKN015 TX16/2917Z TN11/2910Z BECMG 2902/2904 VRB02KT BKN010 BECMG 2912/2914 32005KT BECMG 2913/ 2915 SCT020 BKN100 BECMG 2916/2918 SCT025 BKN070 TEMPO 2921/2924 6000 -SHRA BKN018 OVC030=

Estación: SCER
METAR SCER 161100Z 00000KT 7000 OVC014 12/10 Q1015=

TAF SCER NIL=

Estación: SCRD
METAR SCRD 282200Z 00000KT 4000 BR OVC004 11/11 Q1020=

TAF SCRD 281030Z 2812/2824 VRB02KT 3000 BR BKN008 TX15/2818Z TN10/ 2812Z TEMPO 2812/2815 0800 FG BKN005 BECMG 2815/2817 25008KT 5000 HZ SCT010 BECMG 2818/2820 CAVOK=

Estación: SCVM
METAR SCVM 290100Z 00000KT 8000 OVC012 13/11 Q1020=

TAF SCVM 282230Z 2900/2924 VRB02KT 5000 HZ BKN012 TX15/2916Z TN10/ 2910Z TEMPO 2900/2904 00000KT 2000 BR OVC008 BECMG 2904/2906 35005KT 9999 BKN020 OVC070 TEMPO 2912/2915 02007KT 6000 -SHRA BKN015 OVC050 BECMG 2915/2917 01007KT 5000 SHRA BKN015 OVC030=

Estación: SCTB
METAR SCTB 282200Z 00000KT 1000 HZ BKN080 14/09 Q1019=

TAF AMD SCTB 282012Z 2820/2824 22005KT 2000 HZ BKN080 OVC010 TX16/ 2820Z TN13/2824Z BECMG 2822/2824 VRB02KT=

Estación: SCEL
METAR SCEL 290100Z 14008KT 3000 HZ SCT005 BKN130 11/08 Q1019 NOSIG=

TAF COR SCEL 282336Z 2900/2924 15005KT 4000 HZ SCT004 BKN100 BKN130 TX15/2917Z TN09/2906Z TEMPO 2900/2905 VRB02KT 2000 BR OVC003 BECMG 2907/2909 VRB02KT 7000 BKN080 OVC100 BECMG 2910/2912 SCT050 BKN080 BECMG 2912/2914 24005KT 9999 TEMPO 2921/2924 01007KT 6000 SHRA SCT030 BKN060=

Estación: SCSN
METAR SCSN 290100Z AUTO VRB02KT 7000 OVC020 12/11 Q1021=

TAF SCSN 281029Z 2812/2824 VRB02KT 5000 BR OVC007 TX16/2818Z TN10/ 2812Z TEMPO 2812/2814 3000 BR OVC005 BECMG 2815/2817 23008KT CAVOK=

Estación: SCRG
METAR SCRG 272100Z 21008KT 5000 HZ BKN140 15/09 Q1015=

TAF SCRG 271030Z 2712/2724 VRB02KT 3000 BR BKN150 TX17/2718Z TN08/ 2712Z TEMPO 2712/2715 0500 BCFG SCT005 BKN150 BECMG 2717/2719 21008KT SCT150=

Estación: SCIC
METAR SCIC 290100Z AUTO 12004KT 3500 BR OVC013 12/11 Q1020=

TAF SCIC 281031Z 2812/2824 03004KT 2000 BR OVC005 TX15/2818Z TN08/ 2812Z TEMPO 2812/2816 VRB02KT 0500 FG BKN002 OVC005 BECMG 2816/2818 24005KT 5000 HZ SCT008 BECMG 2818/2820 23008KT CAVOK=

Estación: SCCH
METAR SCCH 290100Z AUTO 18004KT 090V220 9000 NCD 09/09 Q1020=

TAF SCCH 281031Z 2812/2824 VRB02KT 9999 OVC005 TX15/2818Z TN07/2812Z TEMPO 2812/2814 3000 BR OVC003 BECMG 2815/2817 22005KT SCT008 BECMG 2817/2819 CAVOK=

Estación: SCIE
METAR SCIE 290100Z 11004KT 9999 SCT025 BKN060 12/11 Q1020 RESHRA=

TAF SCIE 2832232Z 2900/2924 03009KT 6000 -SHRA BKN020 OVC030 TX15/ 2916Z TN11/2910Z TEMPO 2901/2910 04012KT 3000 RA BKN010 OVC025=

Estación: SCGE
METAR SCGE 282200Z 00000KT 1000 BR OVC003 10/09 Q1020=

TAF SCGE 281030Z 2812/2824 VRB02KT 2000 BR OVC005 TX15/2818Z TN07/ 2812Z TEMPO 2812/2815 0800 FG OVC003 BECMG 2815/2817 5000 HZ SCT008 BECMG 2818/2820 31005KT 9999 SCT030=


Volver